Ridge, Texas
Current Conditions -  °F | °C
As of 5:15 PM on Wednesday 26 Nov 2014 (Local Time) from KLHB Reporting Station
Clear Clear  
Wind Chill: 17°   Ceiling: Unl
Heat Index: 17°   Visibility: 10mi
Dew Point:   Wind: 5mph
Humidity: 39%   Direction: 320°NW
Pressure: 30.21"   Gusts: NA
Location:  31.0654°N, 96.4194°W
Report Text: KLHB 262315Z AUTO 32004KT 10SM CLR 17/03 A3021 RMK AO2 T01690029
Loading
Personal Weather Stations






























Interactive Weather Map New forecast layout! Learn more

10-Day Weather Forecast

Advertisements
Track Severe Weather on mobile